createdAt,value
2017-08-18T00:02:10.027Z,2.50
2017-08-18T00:04:37.328Z,2.87
2017-08-18T00:07:04.620Z,3.67
2017-08-18T00:09:31.948Z,2.87
2017-08-18T00:11:59.400Z,2.67
2017-08-18T00:14:26.683Z,2.60
2017-08-18T00:16:54.019Z,2.90
2017-08-18T00:19:21.308Z,3.07
2017-08-18T00:21:48.604Z,3.07
2017-08-18T00:24:15.902Z,2.87
2017-08-18T00:26:43.246Z,2.40
2017-08-18T00:29:10.514Z,3.40
2017-08-18T00:31:37.802Z,2.73
2017-08-18T00:34:05.126Z,2.70
2017-08-18T00:36:32.397Z,2.60
2017-08-18T00:38:59.686Z,2.70
2017-08-18T00:41:27.014Z,2.93
2017-08-18T00:43:54.298Z,2.87
2017-08-18T00:46:21.603Z,2.30
2017-08-18T00:48:48.923Z,3.03
2017-08-18T00:51:16.195Z,2.97
2017-08-18T00:53:43.501Z,3.00
2017-08-18T00:56:10.832Z,2.67
2017-08-18T00:58:38.104Z,2.50
2017-08-18T01:01:05.374Z,2.47
2017-08-18T01:03:32.691Z,2.83
2017-08-18T01:05:59.996Z,3.30
2017-08-18T01:08:27.322Z,2.80
2017-08-18T01:10:54.607Z,3.00
2017-08-18T01:13:21.889Z,3.00
2017-08-18T01:15:49.193Z,3.07
2017-08-18T01:18:16.571Z,3.27
2017-08-18T01:20:43.851Z,3.10
2017-08-18T01:23:11.126Z,3.67
2017-08-18T01:25:38.506Z,3.33
2017-08-18T01:28:05.796Z,3.00
2017-08-18T01:30:33.079Z,3.50
2017-08-18T01:33:00.393Z,3.50
2017-08-18T01:35:27.667Z,3.00
2017-08-18T01:37:55.010Z,3.27
2017-08-18T01:40:22.263Z,3.77
2017-08-18T01:42:49.594Z,3.70
2017-08-18T01:45:16.870Z,3.20
2017-08-18T01:47:44.150Z,4.00
2017-08-18T01:50:11.487Z,3.40
2017-08-18T01:52:38.764Z,3.27
2017-08-18T01:55:06.057Z,3.50
2017-08-18T01:57:33.365Z,3.30
2017-08-18T02:00:00.662Z,3.40
2017-08-18T02:02:27.974Z,3.40
2017-08-18T02:04:55.301Z,4.03
2017-08-18T02:07:22.584Z,2.93
2017-08-18T02:09:49.867Z,3.67
2017-08-18T02:12:17.171Z,2.77
2017-08-18T02:14:44.438Z,3.30
2017-08-18T02:17:11.775Z,3.10
2017-08-18T02:19:39.040Z,3.10
2017-08-18T02:22:06.375Z,2.90
2017-08-18T02:24:33.650Z,3.60
2017-08-18T02:27:00.923Z,3.13
2017-08-18T02:29:28.215Z,3.60
2017-08-18T02:31:55.529Z,3.70
2017-08-18T02:34:22.797Z,3.10
2017-08-18T02:36:50.062Z,3.27
2017-08-18T02:39:17.383Z,3.20
2017-08-18T02:41:44.668Z,3.10
2017-08-18T02:44:11.942Z,3.23
2017-08-18T02:46:39.256Z,3.10
2017-08-18T02:49:06.549Z,3.30
2017-08-18T02:51:33.871Z,3.40
2017-08-18T02:54:01.162Z,3.40
2017-08-18T02:56:28.480Z,2.93
2017-08-18T02:58:55.763Z,3.40
2017-08-18T03:01:23.109Z,3.30
2017-08-18T03:03:50.379Z,3.30
2017-08-18T03:06:17.648Z,2.57
2017-08-18T03:08:44.957Z,3.60
2017-08-18T03:11:12.230Z,3.67
2017-08-18T03:13:39.535Z,3.23
2017-08-18T03:16:07.729Z,3.33
2017-08-18T03:18:35.057Z,3.47
2017-08-18T03:21:02.330Z,3.03
2017-08-18T03:23:29.592Z,3.03
2017-08-18T03:25:56.901Z,3.30
2017-08-18T03:28:24.201Z,3.27
2017-08-18T03:30:51.513Z,2.97
2017-08-18T03:33:18.798Z,2.83
2017-08-18T03:35:46.076Z,2.80
2017-08-18T03:38:13.395Z,3.30
2017-08-18T03:40:40.670Z,3.40
2017-08-18T03:43:07.966Z,2.83
2017-08-18T03:45:35.291Z,2.93
2017-08-18T03:48:02.577Z,3.00
2017-08-18T03:50:29.881Z,3.33
2017-08-18T03:52:57.199Z,3.63
2017-08-18T03:55:24.492Z,3.60
2017-08-18T03:57:51.748Z,3.70
2017-08-18T04:00:19.072Z,3.60
2017-08-18T04:02:46.349Z,3.20
2017-08-18T04:05:13.654Z,3.10
2017-08-18T04:07:40.948Z,3.30
2017-08-18T04:10:08.252Z,3.27
2017-08-18T04:12:35.574Z,2.90
2017-08-18T04:15:02.855Z,2.90
2017-08-18T04:17:30.164Z,3.90
2017-08-18T04:19:57.430Z,3.40
2017-08-18T04:22:24.807Z,3.60
2017-08-18T04:24:52.083Z,3.10
2017-08-18T04:27:19.406Z,4.07
2017-08-18T04:29:46.719Z,3.53
2017-08-18T04:32:13.977Z,3.07
2017-08-18T04:34:41.274Z,3.77
2017-08-18T04:37:08.575Z,3.20
2017-08-18T04:39:35.870Z,3.50
2017-08-18T04:42:03.155Z,2.97
2017-08-18T04:44:30.436Z,3.10
2017-08-18T04:46:57.768Z,2.80
2017-08-18T04:49:25.069Z,3.20
2017-08-18T04:51:52.340Z,3.40
2017-08-18T04:54:19.655Z,2.63
2017-08-18T04:56:46.978Z,3.00
2017-08-18T04:59:14.355Z,3.33
2017-08-18T05:01:41.659Z,3.27
2017-08-18T05:04:08.929Z,3.27
2017-08-18T05:06:36.225Z,3.40
2017-08-18T05:09:03.516Z,2.83
2017-08-18T05:11:30.808Z,3.63
2017-08-18T05:13:58.105Z,3.43
2017-08-18T05:16:25.411Z,3.20
2017-08-18T05:18:52.691Z,3.27
2017-08-18T05:21:19.999Z,3.00
2017-08-18T05:23:47.279Z,3.40
2017-08-18T05:26:14.540Z,2.90
2017-08-18T05:28:41.818Z,3.50
2017-08-18T05:31:09.097Z,3.00
2017-08-18T05:33:36.382Z,3.73
2017-08-18T05:36:03.728Z,3.20
2017-08-18T05:38:30.996Z,2.80
2017-08-18T05:40:58.335Z,3.47
2017-08-18T05:43:25.632Z,2.47
2017-08-18T05:45:52.934Z,2.80
2017-08-18T05:48:20.211Z,3.10
2017-08-18T05:50:47.514Z,3.10
2017-08-18T05:53:14.784Z,3.37
2017-08-18T05:55:42.063Z,2.57
2017-08-18T05:58:09.519Z,2.83
2017-08-18T06:00:36.815Z,3.07
2017-08-18T06:03:04.099Z,2.67
2017-08-18T06:05:32.183Z,2.73
2017-08-18T06:07:59.457Z,2.87
2017-08-18T06:10:26.763Z,2.90
2017-08-18T06:12:54.036Z,2.73
2017-08-18T06:15:21.343Z,2.70
2017-08-18T06:17:48.621Z,2.70
2017-08-18T06:20:15.934Z,3.20
2017-08-18T06:22:43.248Z,2.80
2017-08-18T06:25:10.546Z,3.30
2017-08-18T06:27:37.831Z,2.87
2017-08-18T06:30:05.117Z,3.07
2017-08-18T06:32:32.388Z,2.70
2017-08-18T06:34:59.712Z,2.83
2017-08-18T06:37:27.098Z,3.00
2017-08-18T06:39:54.606Z,2.87
2017-08-18T06:42:22.121Z,2.80
2017-08-18T06:44:49.520Z,3.03
2017-08-18T06:47:16.822Z,3.27
2017-08-18T06:49:44.086Z,3.20
2017-08-18T06:52:11.406Z,3.07
2017-08-18T06:54:38.674Z,3.10
2017-08-18T06:57:06.311Z,2.53
2017-08-18T06:59:33.606Z,3.13
2017-08-18T07:02:01.000Z,2.87
2017-08-18T07:04:28.316Z,3.03
2017-08-18T07:06:55.592Z,3.43
2017-08-18T07:09:22.850Z,3.00
2017-08-18T07:11:50.200Z,3.00
2017-08-18T07:14:17.464Z,2.73
2017-08-18T07:16:44.760Z,2.70
2017-08-18T07:19:12.083Z,3.80
2017-08-18T07:21:39.372Z,3.50
2017-08-18T07:24:06.659Z,3.23
2017-08-18T07:26:33.959Z,3.23
2017-08-18T07:29:01.287Z,3.23
2017-08-18T07:31:28.572Z,3.30
2017-08-18T07:33:55.843Z,3.60
2017-08-18T07:36:23.141Z,2.80
2017-08-18T07:38:50.410Z,4.13
2017-08-18T07:41:17.676Z,3.23
2017-08-18T07:43:44.990Z,3.70
2017-08-18T07:46:12.259Z,3.37
2017-08-18T07:48:39.589Z,3.80
2017-08-18T07:51:06.855Z,3.60
2017-08-18T07:53:34.142Z,3.90
2017-08-18T07:56:01.472Z,3.70
2017-08-18T07:58:28.741Z,3.70
2017-08-18T08:00:56.008Z,4.10
2017-08-18T08:03:23.303Z,3.43
2017-08-18T08:05:50.595Z,3.80
2017-08-18T08:08:17.899Z,4.30
2017-08-18T08:10:45.200Z,3.63
2017-08-18T08:13:12.495Z,3.50
2017-08-18T08:15:39.798Z,3.40
2017-08-18T08:18:07.075Z,4.30
2017-08-18T08:20:34.380Z,4.33
2017-08-18T08:23:01.655Z,4.30
2017-08-18T08:25:28.961Z,4.43
2017-08-18T08:27:56.231Z,4.40
2017-08-18T08:30:23.531Z,4.87
2017-08-18T08:32:50.842Z,4.70
2017-08-18T08:35:18.097Z,4.60
2017-08-18T08:37:45.392Z,4.40
2017-08-18T08:40:12.693Z,4.90
2017-08-18T08:42:39.974Z,5.37
2017-08-18T08:45:07.275Z,4.50
2017-08-18T08:47:34.550Z,5.30
2017-08-18T08:50:01.867Z,5.20
2017-08-18T08:52:29.168Z,5.00
2017-08-18T08:54:56.449Z,4.70
2017-08-18T08:57:23.736Z,5.17
2017-08-18T08:59:51.023Z,5.20
2017-08-18T09:02:18.353Z,5.60
2017-08-18T09:04:45.616Z,4.80
2017-08-18T09:07:12.892Z,5.10
2017-08-18T09:09:40.195Z,5.33
2017-08-18T09:12:07.498Z,4.67
2017-08-18T09:14:34.775Z,5.27
2017-08-18T09:17:02.083Z,4.70
2017-08-18T09:19:29.375Z,5.17
2017-08-18T09:21:56.638Z,4.47
2017-08-18T09:24:23.964Z,4.40
2017-08-18T09:26:51.254Z,4.97
2017-08-18T09:29:18.505Z,4.47
2017-08-18T09:31:45.815Z,5.00
2017-08-18T09:34:13.086Z,4.20
2017-08-18T09:36:40.395Z,3.90
2017-08-18T09:39:07.672Z,4.83
2017-08-18T09:41:34.936Z,4.30
2017-08-18T09:44:02.272Z,3.93
2017-08-18T09:46:29.528Z,4.60
2017-08-18T09:49:02.763Z,3.47
2017-08-18T09:51:35.942Z,4.50
2017-08-18T09:54:09.201Z,3.67
2017-08-18T09:56:42.558Z,4.00
2017-08-18T09:59:10.644Z,3.40
2017-08-18T10:01:37.719Z,4.03
2017-08-18T10:04:04.780Z,3.97
2017-08-18T10:06:31.896Z,4.23
2017-08-18T10:08:58.952Z,3.40
2017-08-18T10:11:26.016Z,4.10
2017-08-18T10:13:53.110Z,3.87
2017-08-18T10:16:20.172Z,3.60
2017-08-18T10:18:47.256Z,4.13
2017-08-18T10:21:14.346Z,4.00
2017-08-18T10:23:41.436Z,4.13
2017-08-18T10:26:08.546Z,3.63
2017-08-18T10:28:35.604Z,3.70
2017-08-18T10:31:02.669Z,3.47
2017-08-18T10:33:29.788Z,4.07
2017-08-18T10:35:56.858Z,3.67
2017-08-18T10:38:23.943Z,4.07
2017-08-18T10:40:51.059Z,3.87
2017-08-18T10:43:18.116Z,3.13
2017-08-18T10:45:45.219Z,3.30
2017-08-18T10:48:12.297Z,3.10
2017-08-18T10:50:39.355Z,3.13
2017-08-18T10:53:06.481Z,3.00
2017-08-18T10:55:33.541Z,2.80
2017-08-18T10:58:00.600Z,3.17
2017-08-18T11:00:27.727Z,2.90
2017-08-18T11:02:54.800Z,2.70
2017-08-18T11:05:21.862Z,3.10
2017-08-18T11:07:48.956Z,3.87
2017-08-18T11:10:16.010Z,3.80
2017-08-18T11:12:43.111Z,4.70
2017-08-18T11:15:10.205Z,3.87
2017-08-18T11:17:37.325Z,4.03
2017-08-18T11:20:04.402Z,3.50
2017-08-18T11:22:31.489Z,3.90
2017-08-18T11:24:58.585Z,3.60
2017-08-18T11:27:25.674Z,3.80
2017-08-18T11:29:52.767Z,3.73
2017-08-18T11:32:19.853Z,3.70
2017-08-18T11:34:46.955Z,3.20
2017-08-18T11:37:14.063Z,2.83
2017-08-18T11:39:41.152Z,3.30
2017-08-18T11:42:08.211Z,3.43
2017-08-18T11:44:35.295Z,2.60
2017-08-18T11:47:02.367Z,3.20
2017-08-18T11:49:29.458Z,2.83
2017-08-18T11:51:56.551Z,2.90
2017-08-18T11:54:23.648Z,2.90
2017-08-18T11:56:50.714Z,3.07
2017-08-18T11:59:17.815Z,2.70
2017-08-18T12:01:44.906Z,2.80
2017-08-18T12:04:11.961Z,2.73
2017-08-18T12:06:39.058Z,2.70
2017-08-18T12:09:06.795Z,3.03
2017-08-18T12:11:33.908Z,2.87
2017-08-18T12:14:00.961Z,2.90
2017-08-18T12:16:28.058Z,2.50
2017-08-18T12:18:55.118Z,2.60
2017-08-18T12:21:22.179Z,2.60
2017-08-18T12:23:49.274Z,3.10
2017-08-18T12:26:16.329Z,2.60
2017-08-18T12:28:43.404Z,2.47
2017-08-18T12:31:10.537Z,2.50
2017-08-18T12:33:37.587Z,2.30
2017-08-18T12:36:04.778Z,2.43
2017-08-18T12:38:31.827Z,2.60
2017-08-18T12:40:58.887Z,2.67
2017-08-18T12:43:25.992Z,2.70
2017-08-18T12:45:53.059Z,2.33
2017-08-18T12:48:20.164Z,2.40
2017-08-18T12:50:47.258Z,2.13
2017-08-18T12:53:15.317Z,2.20
2017-08-18T12:55:42.410Z,2.10
2017-08-18T12:58:09.486Z,3.00
2017-08-18T13:00:36.599Z,2.40
2017-08-18T13:03:03.670Z,2.47
2017-08-18T13:08:04.095Z,2.23
2017-08-18T13:10:31.189Z,2.30
2017-08-18T13:12:58.252Z,2.40
2017-08-18T13:15:25.354Z,2.20
2017-08-18T13:17:52.448Z,2.40
2017-08-18T13:20:19.567Z,2.13
2017-08-18T13:22:46.635Z,2.50
2017-08-18T13:25:13.713Z,1.93
2017-08-18T13:27:40.818Z,2.30
2017-08-18T13:30:07.880Z,1.90
2017-08-18T13:32:34.975Z,2.23
2017-08-18T13:35:02.043Z,2.00
2017-08-18T13:37:29.157Z,2.03
2017-08-18T13:39:56.384Z,1.87
2017-08-18T13:42:23.453Z,2.03
2017-08-18T13:44:50.550Z,1.80
2017-08-18T13:47:17.671Z,2.40
2017-08-18T13:49:44.698Z,2.53
2017-08-18T13:52:11.799Z,2.47
2017-08-18T13:54:38.867Z,2.40
2017-08-18T13:57:05.965Z,3.00
2017-08-18T13:59:33.034Z,3.13
2017-08-18T14:02:00.123Z,2.80
2017-08-18T14:04:27.186Z,3.50
2017-08-18T14:06:54.300Z,3.40
2017-08-18T14:09:21.376Z,2.73
2017-08-18T14:11:48.448Z,3.47
2017-08-18T14:14:15.587Z,3.10
2017-08-18T14:16:42.752Z,1.77
2017-08-18T14:19:09.886Z,2.17
2017-08-18T14:21:36.981Z,1.93
2017-08-18T14:24:04.052Z,1.40
2017-08-18T14:26:37.078Z,1.57
2017-08-18T14:29:04.395Z,1.23
2017-08-18T14:31:31.695Z,1.20
2017-08-18T14:33:59.010Z,1.00
2017-08-18T14:36:26.265Z,1.00
2017-08-18T14:38:53.586Z,0.80
2017-08-18T14:41:20.887Z,0.70
2017-08-18T14:43:48.217Z,0.80
2017-08-18T14:46:15.518Z,0.90
2017-08-18T14:48:42.836Z,1.20
2017-08-18T14:51:10.152Z,0.70
2017-08-18T14:53:37.432Z,0.80
2017-08-18T14:56:04.714Z,0.80
2017-08-18T14:58:32.018Z,0.87
2017-08-18T15:00:59.662Z,1.10
2017-08-18T15:03:26.929Z,0.83
2017-08-18T15:05:54.240Z,1.00
2017-08-18T15:08:21.510Z,1.00
2017-08-18T15:10:48.806Z,1.00
2017-08-18T15:13:16.129Z,0.97
2017-08-18T15:15:43.418Z,0.80
2017-08-18T15:18:10.737Z,0.90
2017-08-18T15:20:38.052Z,0.80
2017-08-18T15:23:05.347Z,0.73
2017-08-18T15:25:32.611Z,0.87
2017-08-18T15:27:59.874Z,1.00
2017-08-18T15:30:27.190Z,0.90
2017-08-18T15:32:54.469Z,0.90
2017-08-18T15:35:21.776Z,1.10
2017-08-18T15:37:49.134Z,0.70
2017-08-18T15:40:16.424Z,0.87
2017-08-18T15:42:43.700Z,1.07
2017-08-18T15:45:11.009Z,1.00
2017-08-18T15:47:38.260Z,1.00
2017-08-18T15:50:05.580Z,1.00
2017-08-18T15:52:32.940Z,1.10
2017-08-18T15:55:00.209Z,1.10
2017-08-18T15:57:27.471Z,0.90
2017-08-18T15:59:54.802Z,0.90
2017-08-18T16:02:22.103Z,0.97
2017-08-18T16:04:49.413Z,0.90
2017-08-18T16:07:16.740Z,0.70
2017-08-18T16:09:44.025Z,0.90
2017-08-18T16:12:11.314Z,0.70
2017-08-18T16:14:38.607Z,0.70
2017-08-18T16:17:05.942Z,0.80
2017-08-18T16:19:35.171Z,0.93
2017-08-18T16:22:02.457Z,0.80
2017-08-18T16:24:29.743Z,0.83
2017-08-18T16:26:57.073Z,0.73
2017-08-18T16:29:24.326Z,0.83
2017-08-18T16:31:51.621Z,0.97
2017-08-18T16:34:18.948Z,0.70
2017-08-18T16:36:46.232Z,0.90
2017-08-18T16:39:13.511Z,0.70
2017-08-18T16:41:40.835Z,0.87
2017-08-18T16:44:08.119Z,0.80
2017-08-18T16:46:35.411Z,0.90
2017-08-18T16:49:02.737Z,0.80
2017-08-18T16:51:29.988Z,0.97
2017-08-18T16:53:57.264Z,0.80
2017-08-18T16:56:24.586Z,0.90
2017-08-18T16:58:51.852Z,1.13
2017-08-18T17:01:19.166Z,0.70
2017-08-18T17:03:46.511Z,0.93
2017-08-18T17:06:13.766Z,1.00
2017-08-18T17:08:41.050Z,0.70
2017-08-18T17:11:08.483Z,0.90
2017-08-18T17:13:35.747Z,0.97
2017-08-18T17:16:03.052Z,0.60
2017-08-18T17:18:30.358Z,1.07
2017-08-18T17:20:57.645Z,0.90
2017-08-18T17:23:24.958Z,0.57
2017-08-18T17:25:53.517Z,0.67
2017-08-18T17:28:21.378Z,0.60
2017-08-18T17:30:48.682Z,0.80
2017-08-18T17:33:23.552Z,1.00
2017-08-18T17:35:53.006Z,1.10
2017-08-18T17:38:20.273Z,0.90
2017-08-18T17:40:48.521Z,1.13
2017-08-18T17:43:15.818Z,0.90
2017-08-18T17:45:44.783Z,1.00
2017-08-18T17:48:12.108Z,0.90
2017-08-18T17:50:39.430Z,1.00
2017-08-18T17:53:06.704Z,1.07
2017-08-18T17:55:34.914Z,0.87
2017-08-18T17:58:02.490Z,1.10
2017-08-18T18:00:29.787Z,0.97
2017-08-18T18:02:57.083Z,1.07
2017-08-18T18:05:24.391Z,0.93
2017-08-18T18:07:51.703Z,1.20
2017-08-18T18:10:18.971Z,1.20
2017-08-18T18:12:46.350Z,1.00
2017-08-18T18:15:13.600Z,0.83
2017-08-18T18:17:40.933Z,1.23
2017-08-18T18:20:08.252Z,1.33
2017-08-18T18:22:35.562Z,0.90
2017-08-18T18:25:02.848Z,1.10
2017-08-18T18:27:30.175Z,1.53
2017-08-18T18:29:57.461Z,1.40
2017-08-18T18:32:24.743Z,1.17
2017-08-18T18:34:52.090Z,1.47
2017-08-18T18:37:19.375Z,1.20
2017-08-18T18:39:46.659Z,1.30
2017-08-18T18:42:13.983Z,1.60
2017-08-18T18:44:41.277Z,1.60
2017-08-18T18:47:08.591Z,1.70
2017-08-18T18:49:35.884Z,1.70
2017-08-18T18:52:03.216Z,1.70
2017-08-18T18:54:30.555Z,1.40
2017-08-18T18:56:57.856Z,1.40
2017-08-18T18:59:25.197Z,1.43
2017-08-18T19:01:52.466Z,1.90
2017-08-18T19:04:19.777Z,1.80
2017-08-18T19:06:47.102Z,1.50
2017-08-18T19:09:14.415Z,1.70
2017-08-18T19:11:41.707Z,2.27
2017-08-18T19:14:08.990Z,2.00
2017-08-18T19:16:36.317Z,1.93
2017-08-18T19:19:03.585Z,2.00
2017-08-18T19:21:30.919Z,2.47
2017-08-18T19:23:58.248Z,1.80
2017-08-18T19:26:25.512Z,2.10
2017-08-18T19:28:52.872Z,2.00
2017-08-18T19:31:20.156Z,2.23
2017-08-18T19:33:47.467Z,1.73
2017-08-18T19:36:14.767Z,2.13
2017-08-18T19:38:42.051Z,1.90
2017-08-18T19:41:09.552Z,1.87
2017-08-18T19:43:36.866Z,1.70
2017-08-18T19:46:04.184Z,2.23
2017-08-18T19:48:31.488Z,1.63
2017-08-18T19:50:58.769Z,2.30
2017-08-18T19:53:26.115Z,2.70
2017-08-18T19:55:53.407Z,2.00
2017-08-18T19:58:20.812Z,2.30
2017-08-18T20:00:48.092Z,2.00
2017-08-18T20:03:15.364Z,2.00
2017-08-18T20:05:42.667Z,2.20
2017-08-18T20:08:09.991Z,2.13
2017-08-18T20:10:37.289Z,1.90
2017-08-18T20:13:04.619Z,2.17
2017-08-18T20:15:32.745Z,2.00
2017-08-18T20:18:00.260Z,1.97
2017-08-18T20:20:27.550Z,1.90
2017-08-18T20:22:54.879Z,1.80
2017-08-18T20:25:22.179Z,2.57
2017-08-18T20:27:49.461Z,2.10
2017-08-18T20:30:16.801Z,2.10
2017-08-18T20:32:44.068Z,2.77
2017-08-18T20:35:11.399Z,2.10
2017-08-18T20:37:38.735Z,2.73
2017-08-18T20:40:06.062Z,2.60
2017-08-18T20:42:33.390Z,2.63
2017-08-18T20:45:00.687Z,3.07
2017-08-18T20:47:27.990Z,2.90
2017-08-18T20:49:55.321Z,2.20
2017-08-18T20:52:22.635Z,2.30
2017-08-18T20:54:49.968Z,2.27
2017-08-18T20:57:17.257Z,2.77
2017-08-18T20:59:44.567Z,2.47
2017-08-18T21:02:11.876Z,3.27
2017-08-18T21:04:39.192Z,2.83
2017-08-18T21:07:06.450Z,2.70
2017-08-18T21:09:33.850Z,3.70
2017-08-18T21:12:01.116Z,3.20
2017-08-18T21:14:28.470Z,3.07
2017-08-18T21:16:59.856Z,3.60
2017-08-18T21:19:27.712Z,2.80
2017-08-18T21:21:55.004Z,3.63
2017-08-18T21:24:22.345Z,3.57
2017-08-18T21:26:49.624Z,3.83
2017-08-18T21:29:16.989Z,3.67
2017-08-18T21:31:44.287Z,3.00
2017-08-18T21:34:11.586Z,3.53
2017-08-18T21:36:38.872Z,3.70
2017-08-18T21:39:06.191Z,3.23
2017-08-18T21:41:33.490Z,2.93
2017-08-18T21:44:00.776Z,4.33
2017-08-18T21:46:28.099Z,3.10
2017-08-18T21:48:55.369Z,3.97
2017-08-18T21:51:22.656Z,3.77
2017-08-18T21:53:49.964Z,2.67
2017-08-18T21:56:17.232Z,3.30
2017-08-18T21:58:44.526Z,3.60
2017-08-18T22:01:11.859Z,2.67
2017-08-18T22:03:39.127Z,2.97
2017-08-18T22:06:06.496Z,2.60
2017-08-18T22:08:33.797Z,3.27
2017-08-18T22:11:01.083Z,2.73
2017-08-18T22:13:28.419Z,2.70
2017-08-18T22:15:55.715Z,2.60
2017-08-18T22:18:23.043Z,2.63
2017-08-18T22:20:50.335Z,2.80
2017-08-18T22:23:17.666Z,3.20
2017-08-18T22:25:44.998Z,3.10
2017-08-18T22:28:13.012Z,2.83
2017-08-18T22:30:40.303Z,2.90
2017-08-18T22:33:07.639Z,2.07
2017-08-18T22:35:34.956Z,2.30
2017-08-18T22:38:02.249Z,2.17
2017-08-18T22:40:29.560Z,2.30
2017-08-18T22:42:56.914Z,2.33
2017-08-18T22:45:24.226Z,2.20
2017-08-18T22:47:51.558Z,2.37
2017-08-18T22:50:18.859Z,2.30
2017-08-18T22:52:46.169Z,1.93
2017-08-18T22:55:13.474Z,2.50
2017-08-18T22:57:40.781Z,2.20
2017-08-18T23:00:08.114Z,2.20
2017-08-18T23:02:35.384Z,2.57
2017-08-18T23:05:02.719Z,2.13
2017-08-18T23:07:30.025Z,2.40
2017-08-18T23:09:57.656Z,2.30
2017-08-18T23:12:25.150Z,2.30
2017-08-18T23:14:52.490Z,2.13
2017-08-18T23:17:20.199Z,2.10
2017-08-18T23:19:47.493Z,2.10
2017-08-18T23:22:15.292Z,1.87
2017-08-18T23:24:43.112Z,3.03
2017-08-18T23:27:10.406Z,1.87
2017-08-18T23:29:37.686Z,2.00
2017-08-18T23:32:05.009Z,2.03
2017-08-18T23:34:32.304Z,2.00
2017-08-18T23:36:59.613Z,1.70
2017-08-18T23:39:26.913Z,2.00
2017-08-18T23:41:54.281Z,2.07
2017-08-18T23:44:21.597Z,2.00
2017-08-18T23:46:48.972Z,2.10
2017-08-18T23:49:16.345Z,2.33
2017-08-18T23:51:43.658Z,1.87
2017-08-18T23:54:10.978Z,2.30
2017-08-18T23:56:38.352Z,2.07
2017-08-18T23:59:05.647Z,2.33
